This is the latest recevied weather packets stored in our database for station/object KD2FGL-13. If no packets are shown the sender has not sent any weather packets the latest 10 day(s).
| Time | Temp. | Humidity | Pressure | Rain* | Wind** | Luminosity | Snow |
|---|---|---|---|---|---|---|---|
| 1777742458 | 15° C | 53% | 1014.1 hPa | 0 mm | - | - | - |
| 1777741850 | 15° C | 54% | 1014.1 hPa | 0 mm | - | - | - |
| 1777741546 | 14.44° C | 55% | 1014.3 hPa | 0 mm | - | - | - |
| 1777740938 | 14.44° C | 56% | 1014.2 hPa | 0 mm | - | - | - |
| 1777738510 | 12.78° C | 60% | 1014.5 hPa | 0 mm | - | - | - |
| 1777738204 | 13.33° C | 60% | 1014.3 hPa | 0 mm | - | - | - |
| 1777736987 | 13.33° C | 59% | 1014.6 hPa | 0 mm | - | - | - |
| 1777736683 | 13.33° C | 59% | 1014.4 hPa | 0 mm | - | - | - |
| 1777736378 | 13.33° C | 59% | 1014.4 hPa | 0 mm | - | - | - |
| 1777736075 | 13.33° C | 59% | 1014.3 hPa | 0 mm | - | - | - |
| 1777735774 | 13.33° C | 59% | 1014.3 hPa | 0 mm | - | - | - |
| 1777734860 | 14.44° C | 57% | 1014.1 hPa | 0 mm | - | - | - |
| 1777734556 | 14.44° C | 56% | 1014.1 hPa | 0 mm | - | - | - |
| 1777730604 | 13.89° C | 58% | 1014.1 hPa | 0 mm | - | - | - |
| 1777729084 | 13.89° C | 58% | 1014.2 hPa | 0 mm | - | - | - |
| 1777728477 | 14.44° C | 57% | 1014.1 hPa | 0 mm | - | - | - |
| 1777728176 | 14.44° C | 57% | 1014 hPa | 0 mm | - | - | - |
| 1777727870 | 14.44° C | 57% | 1014.1 hPa | 0 mm | - | - | - |
| 1777727567 | 14.44° C | 57% | 1014.1 hPa | 0 mm | - | - | - |
| 1777727262 | 14.44° C | 58% | 1014.1 hPa | 0 mm | - | - | - |
| 1777725743 | 13.33° C | 59% | 1014 hPa | 0 mm | - | - | - |
| 1777725437 | 13.33° C | 59% | 1013.9 hPa | 0 mm | - | - | - |
| 1777725134 | 13.33° C | 60% | 1014 hPa | 0 mm | - | - | - |
| 1777724830 | 12.78° C | 60% | 1014.2 hPa | 0 mm | - | - | - |
| 1777724526 | 12.78° C | 60% | 1014.1 hPa | 0 mm | - | - | - |
* Rain since midnight (hover to see other rain measurements)
** Current wind speed in m/s (hover to see current wind gust speed)